createdAt,value
2018-11-28T00:00:33.192Z,55.63
2018-11-28T00:01:33.185Z,54.80
2018-11-28T00:02:33.168Z,55.82
2018-11-28T00:03:33.158Z,55.53
2018-11-28T00:04:33.161Z,55.74
2018-11-28T00:05:33.134Z,56.78
2018-11-28T00:06:33.123Z,56.34
2018-11-28T00:07:33.113Z,56.96
2018-11-28T00:08:33.101Z,56.57
2018-11-28T00:09:33.101Z,56.57
2018-11-28T00:10:33.078Z,56.65
2018-11-28T00:11:33.066Z,56.47
2018-11-28T00:12:33.054Z,55.84
2018-11-28T00:13:33.043Z,56.78
2018-11-28T00:14:33.046Z,56.37
2018-11-28T00:15:33.025Z,56.16
2018-11-28T00:16:33.010Z,56.57
2018-11-28T00:17:32.999Z,56.26
2018-11-28T00:18:32.992Z,55.84
2018-11-28T00:19:32.998Z,55.82
2018-11-28T00:20:32.966Z,56.44
2018-11-28T00:21:32.954Z,55.82
2018-11-28T00:22:32.944Z,55.19
2018-11-28T00:23:32.935Z,55.43
2018-11-28T00:24:32.933Z,54.88
2018-11-28T00:25:32.910Z,55.19
2018-11-28T00:26:32.900Z,55.74
2018-11-28T00:27:32.887Z,55.40
2018-11-28T00:28:32.877Z,55.63
2018-11-28T00:29:32.896Z,55.63
2018-11-28T00:30:32.859Z,55.43
2018-11-28T00:31:32.843Z,56.13
2018-11-28T00:32:32.833Z,56.47
2018-11-28T00:33:32.820Z,56.37
2018-11-28T00:34:32.810Z,56.26
2018-11-28T00:35:32.814Z,56.78
2018-11-28T00:36:32.787Z,56.68
2018-11-28T00:37:32.777Z,56.68
2018-11-28T00:38:32.766Z,56.47
2018-11-28T00:39:32.758Z,56.37
2018-11-28T00:40:32.754Z,56.37
2018-11-28T00:41:32.733Z,56.68
2018-11-28T00:42:32.722Z,56.78
2018-11-28T00:43:32.710Z,56.68
2018-11-28T00:44:32.699Z,57.20
2018-11-28T00:45:32.705Z,56.99
2018-11-28T00:46:32.678Z,56.37
2018-11-28T00:47:32.666Z,56.57
2018-11-28T00:48:32.655Z,56.37
2018-11-28T00:49:32.644Z,56.68
2018-11-28T00:50:32.644Z,56.57
2018-11-28T00:51:32.622Z,56.47
2018-11-28T00:52:32.613Z,56.37
2018-11-28T00:53:32.600Z,56.57
2018-11-28T00:54:32.622Z,56.47
2018-11-28T00:55:32.588Z,56.68
2018-11-28T00:56:32.565Z,56.47
2018-11-28T00:57:32.557Z,56.78
2018-11-28T00:58:32.545Z,56.26
2018-11-28T00:59:32.537Z,56.57
2018-11-28T01:00:32.537Z,56.37
2018-11-28T01:01:34.093Z,56.88
2018-11-28T01:02:32.502Z,57.07
2018-11-28T01:03:32.489Z,56.88
2018-11-28T01:04:32.478Z,57.92
2018-11-28T01:05:32.478Z,57.92
2018-11-28T01:06:32.455Z,58.54
2018-11-28T01:07:32.444Z,58.54
2018-11-28T01:08:32.434Z,59.38
2018-11-28T01:09:32.425Z,59.69
2018-11-28T01:10:32.422Z,59.59
2018-11-28T01:11:32.400Z,59.80
2018-11-28T01:12:32.388Z,59.93
2018-11-28T01:13:32.377Z,59.72
2018-11-28T01:14:32.367Z,60.97
2018-11-28T01:15:32.366Z,60.86
2018-11-28T01:16:32.346Z,61.07
2018-11-28T01:17:32.332Z,59.90
2018-11-28T01:18:32.327Z,59.90
2018-11-28T01:19:32.310Z,60.00
2018-11-28T01:20:32.312Z,60.63
2018-11-28T01:21:32.287Z,60.94
2018-11-28T01:22:32.278Z,60.42
2018-11-28T01:23:32.265Z,60.86
2018-11-28T01:24:32.254Z,61.57
2018-11-28T01:25:32.255Z,61.38
2018-11-28T01:26:32.239Z,61.36
2018-11-28T01:27:32.222Z,60.86
2018-11-28T01:28:32.210Z,61.25
2018-11-28T01:29:32.199Z,60.94
2018-11-28T01:30:32.201Z,61.07
2018-11-28T01:31:32.183Z,61.80
2018-11-28T01:32:32.166Z,61.67
2018-11-28T01:33:32.155Z,61.57
2018-11-28T01:34:32.144Z,61.67
2018-11-28T01:35:32.162Z,62.01
2018-11-28T01:36:32.121Z,62.40
2018-11-28T01:37:32.114Z,62.19
2018-11-28T01:38:32.100Z,62.22
2018-11-28T01:39:32.089Z,62.22
2018-11-28T01:40:32.077Z,63.15
2018-11-28T01:41:32.081Z,63.05
2018-11-28T01:42:32.054Z,63.15
2018-11-28T01:43:32.051Z,63.05
2018-11-28T01:44:32.033Z,63.36
2018-11-28T01:45:32.021Z,63.67
2018-11-28T01:46:32.022Z,63.67
2018-11-28T01:47:31.999Z,63.98
2018-11-28T01:48:31.989Z,64.12
2018-11-28T01:49:31.981Z,63.60
2018-11-28T01:50:31.966Z,63.81
2018-11-28T01:51:31.968Z,64.19
2018-11-28T01:52:31.947Z,64.53
2018-11-28T01:53:31.933Z,63.60
2018-11-28T01:54:31.922Z,64.22
2018-11-28T01:55:31.910Z,64.32
2018-11-28T01:56:31.912Z,64.95
2018-11-28T01:57:31.889Z,64.22
2018-11-28T01:58:31.879Z,64.09
2018-11-28T01:59:31.866Z,64.82
2018-11-28T02:00:31.856Z,64.75
2018-11-28T02:01:31.857Z,65.44
2018-11-28T02:02:31.833Z,64.22
2018-11-28T02:03:31.826Z,64.67
2018-11-28T02:04:31.812Z,65.19
2018-11-28T02:05:31.799Z,65.68
2018-11-28T02:06:31.802Z,65.92
2018-11-28T02:07:31.779Z,66.13
2018-11-28T02:08:31.767Z,66.02
2018-11-28T02:09:31.755Z,66.02
2018-11-28T02:10:31.743Z,66.13
2018-11-28T02:11:31.742Z,65.71
2018-11-28T02:12:31.721Z,66.44
2018-11-28T02:13:31.711Z,66.33
2018-11-28T02:14:31.699Z,66.33
2018-11-28T02:15:31.688Z,66.23
2018-11-28T02:16:31.692Z,66.13
2018-11-28T02:17:31.673Z,66.44
2018-11-28T02:18:31.658Z,66.02
2018-11-28T02:19:31.648Z,66.23
2018-11-28T02:20:31.633Z,66.65
2018-11-28T02:21:31.634Z,66.33
2018-11-28T02:22:31.611Z,65.92
2018-11-28T02:23:31.605Z,65.92
2018-11-28T02:24:31.590Z,66.44
2018-11-28T02:25:31.579Z,66.54
2018-11-28T02:26:31.580Z,66.96
2018-11-28T02:27:31.557Z,67.10
2018-11-28T02:28:31.551Z,66.89
2018-11-28T02:29:31.534Z,67.17
2018-11-28T02:30:31.525Z,67.20
2018-11-28T02:31:31.523Z,67.30
2018-11-28T02:32:31.501Z,67.27
2018-11-28T02:33:31.488Z,67.17
2018-11-28T02:34:31.491Z,66.86
2018-11-28T02:35:31.467Z,67.27
2018-11-28T02:36:31.467Z,67.27
2018-11-28T02:37:31.447Z,67.38
2018-11-28T02:38:31.435Z,66.96
2018-11-28T02:39:31.423Z,67.48
2018-11-28T02:40:31.414Z,66.75
2018-11-28T02:41:31.413Z,66.96
2018-11-28T02:42:31.391Z,66.93
2018-11-28T02:43:31.378Z,66.33
2018-11-28T02:44:31.368Z,66.33
2018-11-28T02:45:31.357Z,66.86
2018-11-28T02:46:31.364Z,66.54
2018-11-28T02:47:31.333Z,67.27
2018-11-28T02:48:31.326Z,67.30
2018-11-28T02:49:31.312Z,67.27
2018-11-28T02:50:31.301Z,67.38
2018-11-28T02:51:31.290Z,67.48
2018-11-28T02:52:31.293Z,67.51
2018-11-28T02:53:31.268Z,67.69
2018-11-28T02:54:31.256Z,67.90
2018-11-28T02:55:31.248Z,68.03
2018-11-28T02:56:31.237Z,67.90
2018-11-28T02:57:31.236Z,67.93
2018-11-28T02:58:31.213Z,68.21
2018-11-28T02:59:31.207Z,67.51
2018-11-28T03:00:31.192Z,67.69
2018-11-28T03:01:31.183Z,67.58
2018-11-28T03:02:31.179Z,67.82
2018-11-28T03:03:31.211Z,67.69
2018-11-28T03:04:31.147Z,67.48
2018-11-28T03:05:31.134Z,67.69
2018-11-28T03:06:31.124Z,67.69
2018-11-28T03:07:31.123Z,68.00
2018-11-28T03:08:31.100Z,67.58
2018-11-28T03:09:31.089Z,67.17
2018-11-28T03:10:31.078Z,67.17
2018-11-28T03:11:31.066Z,67.17
2018-11-28T03:12:31.066Z,67.48
2018-11-28T03:13:31.047Z,67.51
2018-11-28T03:14:31.044Z,67.30
2018-11-28T03:15:31.020Z,67.61
2018-11-28T03:16:31.012Z,67.51
2018-11-28T03:17:31.016Z,67.72
2018-11-28T03:18:30.991Z,67.51
2018-11-28T03:19:30.978Z,67.82
2018-11-28T03:20:30.969Z,67.82
2018-11-28T03:21:30.954Z,67.72
2018-11-28T03:22:30.956Z,68.03
2018-11-28T03:23:30.932Z,67.44
2018-11-28T03:24:30.923Z,67.65
2018-11-28T03:25:30.914Z,67.65
2018-11-28T03:26:30.899Z,67.23
2018-11-28T03:27:30.900Z,67.65
2018-11-28T03:28:30.876Z,67.96
2018-11-28T03:29:30.870Z,67.54
2018-11-28T03:30:30.864Z,68.17
2018-11-28T03:31:30.843Z,67.44
2018-11-28T03:32:30.843Z,67.54
2018-11-28T03:33:30.821Z,67.33
2018-11-28T03:34:30.808Z,67.02
2018-11-28T03:35:30.798Z,66.92
2018-11-28T03:36:30.789Z,67.13
2018-11-28T03:37:30.787Z,66.68
2018-11-28T03:38:30.764Z,66.92
2018-11-28T03:39:30.753Z,66.36
2018-11-28T03:40:30.742Z,66.71
2018-11-28T03:41:30.739Z,66.71
2018-11-28T03:42:30.732Z,66.71
2018-11-28T03:43:30.707Z,66.60
2018-11-28T03:44:30.697Z,66.95
2018-11-28T03:45:30.685Z,67.02
2018-11-28T03:46:30.674Z,67.02
2018-11-28T03:47:30.675Z,67.26
2018-11-28T03:48:30.656Z,66.92
2018-11-28T03:49:30.640Z,66.95
2018-11-28T03:50:30.629Z,66.82
2018-11-28T03:51:30.620Z,67.44
2018-11-28T03:52:30.618Z,67.13
2018-11-28T03:53:30.601Z,67.36
2018-11-28T03:54:30.588Z,67.57
2018-11-28T03:55:30.575Z,67.05
2018-11-28T03:56:30.561Z,66.63
2018-11-28T03:57:30.573Z,66.85
2018-11-28T03:58:30.543Z,66.85
2018-11-28T03:59:30.529Z,66.63
2018-11-28T04:00:30.517Z,66.85
2018-11-28T04:01:30.512Z,66.42
2018-11-28T04:02:30.505Z,66.50
2018-11-28T04:03:30.491Z,66.11
2018-11-28T04:04:30.472Z,66.01
2018-11-28T04:05:30.462Z,66.53
2018-11-28T04:06:30.450Z,66.42
2018-11-28T04:07:30.454Z,66.42
2018-11-28T04:08:30.429Z,66.53
2018-11-28T04:09:30.417Z,66.42
2018-11-28T04:10:30.416Z,66.32
2018-11-28T04:11:30.399Z,66.35
2018-11-28T04:12:30.394Z,66.85
2018-11-28T04:13:30.377Z,66.53
2018-11-28T04:14:30.363Z,66.32
2018-11-28T04:15:34.164Z,66.77
2018-11-28T04:16:34.272Z,67.26
2018-11-28T04:17:33.819Z,68.30
2018-11-28T04:18:30.515Z,67.71
2018-11-28T04:19:33.253Z,68.23
2018-11-28T04:20:32.182Z,68.13
2018-11-28T04:21:31.413Z,67.71
2018-11-28T04:22:32.151Z,67.60
2018-11-28T04:23:30.267Z,68.44
2018-11-28T04:24:30.249Z,68.23
2018-11-28T04:25:45.409Z,69.48
2018-11-28T04:26:30.341Z,69.38
2018-11-28T04:27:40.597Z,69.59
2018-11-28T04:28:32.822Z,69.79
2018-11-28T04:29:30.305Z,69.38
2018-11-28T04:30:30.188Z,69.90
2018-11-28T04:31:30.184Z,70.00
2018-11-28T04:32:30.163Z,69.90
2018-11-28T04:33:30.160Z,70.00
2018-11-28T04:34:30.138Z,70.11
2018-11-28T04:35:30.127Z,70.11
2018-11-28T04:36:30.114Z,70.14
2018-11-28T04:37:30.107Z,70.87
2018-11-28T04:38:30.108Z,70.53
2018-11-28T04:39:30.080Z,70.63
2018-11-28T04:40:30.073Z,70.21
2018-11-28T04:41:30.058Z,70.11
2018-11-28T04:42:30.046Z,70.84
2018-11-28T04:43:30.074Z,70.73
2018-11-28T04:44:30.024Z,70.94
2018-11-28T04:45:30.019Z,70.14
2018-11-28T04:46:30.003Z,70.76
2018-11-28T04:47:29.991Z,71.08
2018-11-28T04:48:29.989Z,70.98
2018-11-28T04:49:29.977Z,71.19
2018-11-28T04:50:29.958Z,71.08
2018-11-28T04:51:29.947Z,70.98
2018-11-28T04:52:29.936Z,71.11
2018-11-28T04:53:29.938Z,71.53
2018-11-28T04:54:29.920Z,71.32
2018-11-28T04:55:29.902Z,71.29
2018-11-28T04:56:29.891Z,71.64
2018-11-28T04:57:29.879Z,71.50
2018-11-28T04:58:29.885Z,72.16
2018-11-28T04:59:29.858Z,72.47
2018-11-28T05:00:29.847Z,72.05
2018-11-28T05:01:29.835Z,72.47
2018-11-28T05:02:29.823Z,72.78
2018-11-28T05:03:29.822Z,72.89
2018-11-28T05:04:29.803Z,73.41
2018-11-28T05:05:29.794Z,73.30
2018-11-28T05:06:29.787Z,72.89
2018-11-28T05:07:29.768Z,73.30
2018-11-28T05:08:29.769Z,73.30
2018-11-28T05:09:29.749Z,73.62
2018-11-28T05:10:29.739Z,73.52
2018-11-28T05:11:29.729Z,73.72
2018-11-28T05:12:29.713Z,73.75
2018-11-28T05:13:29.716Z,73.65
2018-11-28T05:14:29.699Z,74.04
2018-11-28T05:15:29.679Z,73.62
2018-11-28T05:16:29.670Z,73.75
2018-11-28T05:17:29.657Z,73.72
2018-11-28T05:18:29.676Z,73.62
2018-11-28T05:19:29.636Z,73.93
2018-11-28T05:20:29.625Z,73.72
2018-11-28T05:21:29.614Z,73.62
2018-11-28T05:22:29.606Z,74.49
2018-11-28T05:23:29.597Z,74.07
2018-11-28T05:24:29.592Z,74.07
2018-11-28T05:25:29.570Z,73.72
2018-11-28T05:26:29.559Z,73.75
2018-11-28T05:27:29.547Z,73.86
2018-11-28T05:28:29.541Z,73.93
2018-11-28T05:29:29.541Z,74.07
2018-11-28T05:30:29.520Z,74.59
2018-11-28T05:31:29.504Z,74.38
2018-11-28T05:32:29.495Z,74.59
2018-11-28T05:33:29.482Z,74.49
2018-11-28T05:34:29.500Z,74.38
2018-11-28T05:35:29.459Z,74.35
2018-11-28T05:36:29.449Z,74.28
2018-11-28T05:37:29.443Z,74.24
2018-11-28T05:38:29.427Z,74.38
2018-11-28T05:39:29.417Z,74.80
2018-11-28T05:40:29.416Z,74.69
2018-11-28T05:41:29.394Z,73.75
2018-11-28T05:42:29.384Z,74.49
2018-11-28T05:43:29.371Z,74.49
2018-11-28T05:44:29.361Z,74.38
2018-11-28T05:45:29.360Z,74.49
2018-11-28T05:46:29.339Z,74.38
2018-11-28T05:47:29.327Z,74.59
2018-11-28T05:48:29.317Z,74.49
2018-11-28T05:49:30.519Z,74.80
2018-11-28T05:50:29.305Z,75.15
2018-11-28T05:51:29.284Z,75.26
2018-11-28T05:52:29.273Z,75.67
2018-11-28T05:53:29.264Z,75.98
2018-11-28T05:54:29.251Z,76.30
2018-11-28T05:55:29.251Z,76.09
2018-11-28T05:56:29.229Z,76.16
2018-11-28T05:57:29.222Z,75.88
2018-11-28T05:58:29.208Z,75.88
2018-11-28T05:59:29.204Z,75.95
2018-11-28T06:00:29.199Z,75.95
2018-11-28T06:01:29.178Z,75.88
2018-11-28T06:02:29.169Z,76.09
2018-11-28T06:03:29.153Z,76.06
2018-11-28T06:04:29.146Z,76.06
2018-11-28T06:05:29.142Z,75.98
2018-11-28T06:06:29.121Z,76.09
2018-11-28T06:07:29.108Z,75.98
2018-11-28T06:08:29.098Z,75.98
2018-11-28T06:09:29.088Z,75.46
2018-11-28T06:10:29.093Z,75.78
2018-11-28T06:11:29.065Z,75.46
2018-11-28T06:12:29.054Z,75.36
2018-11-28T06:13:29.043Z,75.46
2018-11-28T06:14:29.035Z,76.09
2018-11-28T06:15:29.036Z,75.98
2018-11-28T06:16:29.013Z,76.09
2018-11-28T06:17:29.001Z,75.98
2018-11-28T06:18:28.989Z,75.88
2018-11-28T06:19:28.983Z,75.88
2018-11-28T06:20:28.980Z,75.88
2018-11-28T06:21:28.957Z,75.67
2018-11-28T06:22:28.945Z,75.36
2018-11-28T06:23:28.934Z,75.92
2018-11-28T06:24:28.928Z,75.78
2018-11-28T06:25:28.923Z,75.92
2018-11-28T06:26:28.904Z,76.12
2018-11-28T06:27:28.895Z,75.81
2018-11-28T06:28:28.878Z,76.09
2018-11-28T06:29:28.869Z,75.92
2018-11-28T06:30:28.859Z,75.92
2018-11-28T06:31:28.862Z,75.71
2018-11-28T06:32:28.836Z,75.71
2018-11-28T06:33:28.827Z,75.71
2018-11-28T06:34:28.813Z,75.81
2018-11-28T06:35:28.804Z,75.81
2018-11-28T06:36:28.811Z,75.92
2018-11-28T06:37:28.788Z,75.49
2018-11-28T06:38:28.770Z,75.49
2018-11-28T06:39:28.759Z,75.49
2018-11-28T06:40:28.749Z,75.60
2018-11-28T06:41:28.766Z,75.92
2018-11-28T06:42:28.736Z,75.74
2018-11-28T06:43:28.716Z,75.84
2018-11-28T06:44:28.705Z,75.49
2018-11-28T06:45:28.697Z,75.49
2018-11-28T06:46:28.698Z,75.29
2018-11-28T06:47:29.066Z,75.49
2018-11-28T06:48:28.663Z,75.29
2018-11-28T06:49:28.654Z,75.39
2018-11-28T06:50:28.642Z,75.29
2018-11-28T06:51:28.640Z,75.29
2018-11-28T06:52:28.618Z,75.18
2018-11-28T06:53:28.607Z,75.08
2018-11-28T06:54:28.599Z,74.73
2018-11-28T06:55:28.588Z,74.55
2018-11-28T06:56:28.602Z,74.84
2018-11-28T06:57:28.563Z,74.55
2018-11-28T06:58:28.556Z,75.18
2018-11-28T06:59:28.546Z,74.63
2018-11-28T07:00:28.531Z,74.45
2018-11-28T07:01:28.519Z,74.45
2018-11-28T07:02:28.520Z,74.73
2018-11-28T07:03:28.499Z,74.66
2018-11-28T07:04:28.490Z,74.76
2018-11-28T07:05:28.479Z,74.45
2018-11-28T07:06:28.470Z,74.45
2018-11-28T07:07:28.465Z,74.84
2018-11-28T07:08:28.442Z,74.45
2018-11-28T07:09:28.434Z,74.76
2018-11-28T07:10:28.421Z,74.42
2018-11-28T07:11:28.415Z,74.42
2018-11-28T07:12:28.413Z,74.63
2018-11-28T07:13:28.388Z,74.42
2018-11-28T07:14:28.377Z,74.21
2018-11-28T07:15:28.369Z,74.42
2018-11-28T07:16:28.357Z,74.42
2018-11-28T07:17:28.374Z,74.52
2018-11-28T07:18:28.335Z,74.52
2018-11-28T07:19:28.323Z,74.42
2018-11-28T07:20:28.315Z,73.79
2018-11-28T07:21:28.304Z,73.90
2018-11-28T07:22:28.289Z,73.69
2018-11-28T07:23:28.295Z,73.65
2018-11-28T07:24:28.269Z,73.02
2018-11-28T07:25:28.259Z,72.92
2018-11-28T07:26:28.245Z,73.24
2018-11-28T07:27:28.236Z,72.30
2018-11-28T07:28:28.245Z,72.50
2018-11-28T07:29:28.213Z,72.36
2018-11-28T07:30:28.205Z,72.05
2018-11-28T07:31:28.252Z,71.32
2018-11-28T07:32:28.181Z,71.64
2018-11-28T07:33:28.182Z,71.42
2018-11-28T07:34:28.164Z,71.22
2018-11-28T07:35:28.153Z,71.11
2018-11-28T07:36:28.140Z,71.42
2018-11-28T07:37:28.125Z,71.22
2018-11-28T07:38:28.135Z,71.11
2018-11-28T07:39:28.111Z,70.35
2018-11-28T07:40:28.094Z,70.45
2018-11-28T07:41:28.086Z,70.76
2018-11-28T07:42:28.071Z,69.41
2018-11-28T07:43:28.076Z,69.59
2018-11-28T07:44:28.053Z,70.35
2018-11-28T07:45:28.039Z,70.11
2018-11-28T07:46:28.033Z,69.79
2018-11-28T07:47:28.018Z,69.20
2018-11-28T07:48:28.015Z,69.69
2018-11-28T07:49:27.995Z,69.17
2018-11-28T07:50:27.985Z,69.24
2018-11-28T07:51:27.976Z,68.10
2018-11-28T07:52:27.963Z,67.57
2018-11-28T07:53:27.963Z,67.68
2018-11-28T07:54:27.940Z,67.99
2018-11-28T07:55:27.929Z,67.47
2018-11-28T07:56:27.924Z,66.95
2018-11-28T07:57:27.906Z,67.05
2018-11-28T07:58:27.908Z,67.36
2018-11-28T07:59:27.885Z,67.36
2018-11-28T08:00:27.873Z,66.95
2018-11-28T08:01:27.861Z,66.82
2018-11-28T08:02:27.858Z,66.82
2018-11-28T08:03:27.857Z,66.32
2018-11-28T08:04:27.878Z,66.29
2018-11-28T08:05:27.864Z,66.08
2018-11-28T08:06:27.807Z,65.77
2018-11-28T08:07:27.797Z,65.35
2018-11-28T08:08:27.796Z,65.46
2018-11-28T08:09:27.775Z,65.35
2018-11-28T08:10:27.813Z,64.59
2018-11-28T08:11:27.750Z,64.49
2018-11-28T08:12:27.738Z,64.59
2018-11-28T08:13:27.763Z,64.49
2018-11-28T08:14:27.719Z,64.49
2018-11-28T08:15:27.704Z,63.55
2018-11-28T08:16:27.696Z,64.46
2018-11-28T08:17:27.683Z,63.53
2018-11-28T08:18:27.673Z,64.15
2018-11-28T08:19:27.676Z,63.63
2018-11-28T08:20:27.648Z,63.42
2018-11-28T08:21:27.644Z,64.25
2018-11-28T08:22:27.626Z,63.94
2018-11-28T08:23:28.199Z,63.94
2018-11-28T08:24:27.944Z,63.32
2018-11-28T08:25:28.169Z,63.18
2018-11-28T08:26:27.583Z,63.21
2018-11-28T08:27:27.571Z,63.29
2018-11-28T08:28:27.563Z,61.96
2018-11-28T08:29:27.559Z,63.29
2018-11-28T08:30:27.541Z,62.14
2018-11-28T08:31:28.103Z,62.04
2018-11-28T08:32:27.516Z,61.62
2018-11-28T08:33:27.504Z,61.49
2018-11-28T08:34:27.504Z,61.28
2018-11-28T08:35:27.482Z,60.24
2018-11-28T08:36:27.472Z,60.55
2018-11-28T08:37:27.459Z,60.03
2018-11-28T08:38:27.449Z,60.45
2018-11-28T08:39:27.449Z,59.51
2018-11-28T08:40:27.428Z,59.41
2018-11-28T08:41:28.071Z,59.72
2018-11-28T08:42:27.402Z,59.82
2018-11-28T08:43:27.391Z,58.89
2018-11-28T08:44:27.393Z,58.89
2018-11-28T08:45:27.385Z,59.41
2018-11-28T08:46:27.358Z,59.30
2018-11-28T08:47:27.350Z,58.89
2018-11-28T08:48:27.335Z,58.54
2018-11-28T08:49:27.358Z,57.92
2018-11-28T08:50:27.315Z,58.00
2018-11-28T08:51:27.301Z,57.59
2018-11-28T08:52:28.110Z,56.76
2018-11-28T08:53:27.291Z,57.04
2018-11-28T08:54:27.265Z,56.52
2018-11-28T08:55:27.277Z,56.08
2018-11-28T08:56:27.247Z,56.31
2018-11-28T08:57:27.234Z,54.83
2018-11-28T08:58:27.262Z,54.73
2018-11-28T08:59:27.219Z,54.71
2018-11-28T09:00:27.227Z,55.10
2018-11-28T09:01:27.191Z,54.29
2018-11-28T09:02:27.182Z,54.29
2018-11-28T09:03:27.178Z,54.47
2018-11-28T09:04:27.172Z,54.16
2018-11-28T09:05:27.189Z,53.41
2018-11-28T09:06:27.176Z,53.41
2018-11-28T09:07:27.131Z,53.08
2018-11-28T09:08:27.136Z,52.56
2018-11-28T09:09:27.622Z,52.35
2018-11-28T09:10:27.127Z,52.25
2018-11-28T09:11:27.114Z,52.45
2018-11-28T09:12:27.077Z,52.25
2018-11-28T09:13:27.175Z,52.01
2018-11-28T09:14:27.063Z,51.00
2018-11-28T09:15:28.164Z,52.14
2018-11-28T09:16:27.170Z,50.77
2018-11-28T09:17:27.046Z,50.90
2018-11-28T09:18:27.007Z,51.39
2018-11-28T09:19:27.043Z,51.42
2018-11-28T09:20:26.998Z,51.39
2018-11-28T09:21:26.982Z,51.10
2018-11-28T09:22:26.983Z,51.86
2018-11-28T09:23:26.962Z,52.58
2018-11-28T09:24:26.980Z,52.61
2018-11-28T09:25:26.935Z,53.02
2018-11-28T09:26:26.973Z,53.02
2018-11-28T09:27:26.913Z,53.82
2018-11-28T09:28:26.923Z,52.89
2018-11-28T09:29:26.893Z,52.06
2018-11-28T09:30:26.930Z,52.27
2018-11-28T09:31:26.883Z,52.48
2018-11-28T09:32:26.871Z,52.19
2018-11-28T09:33:26.840Z,52.27
2018-11-28T09:34:26.868Z,52.29
2018-11-28T09:35:26.826Z,52.71
2018-11-28T09:36:26.862Z,52.09
2018-11-28T09:37:26.826Z,52.37
2018-11-28T09:38:26.790Z,52.89
2018-11-28T09:39:26.795Z,51.73
2018-11-28T09:40:26.782Z,51.62
2018-11-28T09:41:26.796Z,50.59
2018-11-28T09:42:26.742Z,50.07
2018-11-28T09:43:26.796Z,50.56
2018-11-28T09:44:26.718Z,49.52
2018-11-28T09:45:26.766Z,49.73
2018-11-28T09:46:26.708Z,49.32
2018-11-28T09:47:26.706Z,49.52
2018-11-28T09:48:26.692Z,48.28
2018-11-28T09:49:26.727Z,48.28
2018-11-28T09:50:26.661Z,49.13
2018-11-28T09:51:27.260Z,49.03
2018-11-28T09:52:27.575Z,49.24
2018-11-28T09:53:26.627Z,48.93
2018-11-28T09:54:26.652Z,49.76
2018-11-28T09:55:26.598Z,49.03
2018-11-28T09:56:26.616Z,48.93
2018-11-28T09:57:26.585Z,47.68
2018-11-28T09:58:26.628Z,47.78
2018-11-28T09:59:26.551Z,47.39
2018-11-28T10:00:26.542Z,47.78
2018-11-28T10:01:26.528Z,47.37
2018-11-28T10:02:26.549Z,47.27
2018-11-28T10:03:26.509Z,46.95
2018-11-28T10:04:26.493Z,47.27
2018-11-28T10:05:26.480Z,46.75
2018-11-28T10:06:26.474Z,46.95
2018-11-28T10:07:26.457Z,46.64
2018-11-28T10:08:26.461Z,46.95
2018-11-28T10:09:26.438Z,47.47
2018-11-28T10:10:26.426Z,47.97
2018-11-28T10:11:26.420Z,46.42
2018-11-28T10:12:26.404Z,46.95
2018-11-28T10:13:26.403Z,47.27
2018-11-28T10:14:26.386Z,46.64
2018-11-28T10:15:26.372Z,46.64
2018-11-28T10:16:26.369Z,47.99
2018-11-28T10:17:26.348Z,48.54
2018-11-28T10:18:26.350Z,46.88
2018-11-28T10:19:26.426Z,46.77
2018-11-28T10:20:26.325Z,48.43
2018-11-28T10:21:26.301Z,48.74
2018-11-28T10:22:26.303Z,48.12
2018-11-28T10:23:26.301Z,48.12
2018-11-28T10:24:26.268Z,47.60
2018-11-28T10:25:26.263Z,46.64
2018-11-28T10:26:26.246Z,46.95
2018-11-28T10:27:26.237Z,46.95
2018-11-28T10:28:26.235Z,47.37
2018-11-28T10:29:26.223Z,46.54
2018-11-28T10:30:26.205Z,47.27
2018-11-28T10:31:26.193Z,46.64
2018-11-28T10:32:26.186Z,46.75
2018-11-28T10:33:26.180Z,46.75
2018-11-28T10:34:29.489Z,47.08
2018-11-28T10:35:26.162Z,46.56
2018-11-28T10:36:26.137Z,47.37
2018-11-28T10:37:26.134Z,46.75
2018-11-28T10:38:26.130Z,46.75
2018-11-28T10:39:26.109Z,47.37
2018-11-28T10:40:26.112Z,46.64
2018-11-28T10:41:26.084Z,46.36
2018-11-28T10:42:26.093Z,46.64
2018-11-28T10:43:26.096Z,46.46
2018-11-28T10:44:26.081Z,46.54
2018-11-28T10:45:26.042Z,46.13
2018-11-28T10:46:26.028Z,46.83
2018-11-28T10:47:26.016Z,46.52
2018-11-28T10:48:26.012Z,44.96
2018-11-28T10:49:26.010Z,45.07
2018-11-28T10:50:25.986Z,44.47
2018-11-28T10:51:25.974Z,44.18
2018-11-28T10:52:25.963Z,45.53
2018-11-28T10:53:25.951Z,45.11
2018-11-28T10:54:25.974Z,45.09
2018-11-28T10:55:25.929Z,45.01
2018-11-28T10:56:25.917Z,44.80
2018-11-28T10:57:25.909Z,45.72
2018-11-28T10:58:27.170Z,44.89
2018-11-28T10:59:25.900Z,44.89
2018-11-28T11:00:25.925Z,44.78
2018-11-28T11:01:25.925Z,44.26
2018-11-28T11:02:25.855Z,44.99
2018-11-28T11:03:25.856Z,45.53
2018-11-28T11:04:25.828Z,45.09
2018-11-28T11:05:25.844Z,44.78
2018-11-28T11:06:25.884Z,44.78
2018-11-28T11:07:25.796Z,44.76
2018-11-28T11:08:25.791Z,44.53
2018-11-28T11:09:25.778Z,44.43
2018-11-28T11:10:25.782Z,44.20
2018-11-28T11:11:25.764Z,44.04
2018-11-28T11:12:25.752Z,44.14
2018-11-28T11:13:25.734Z,43.91
2018-11-28T11:14:25.721Z,43.49
2018-11-28T11:15:25.721Z,43.60
2018-11-28T11:16:25.700Z,44.32
2018-11-28T11:17:25.682Z,43.91
2018-11-28T11:18:25.741Z,43.73
2018-11-28T11:19:25.659Z,43.83
2018-11-28T11:20:25.665Z,44.24
2018-11-28T11:21:25.638Z,43.39
2018-11-28T11:22:25.627Z,42.88
2018-11-28T11:23:25.616Z,43.62
2018-11-28T11:24:25.603Z,44.04
2018-11-28T11:25:26.113Z,44.43
2018-11-28T11:26:25.581Z,42.75
2018-11-28T11:27:25.570Z,42.63
2018-11-28T11:28:25.557Z,43.02
2018-11-28T11:29:25.550Z,41.86
2018-11-28T11:30:25.550Z,40.92
2018-11-28T11:31:25.538Z,40.17
2018-11-28T11:32:25.512Z,41.10
2018-11-28T11:33:25.505Z,40.69
2018-11-28T11:34:25.491Z,40.38
2018-11-28T11:35:25.514Z,40.48
2018-11-28T11:36:25.471Z,40.94
2018-11-28T11:37:25.456Z,41.45
2018-11-28T11:38:25.444Z,41.99
2018-11-28T11:39:25.438Z,42.40
2018-11-28T11:40:25.421Z,42.61
2018-11-28T11:41:25.424Z,41.99
2018-11-28T11:42:25.399Z,41.66
2018-11-28T11:43:25.389Z,41.66
2018-11-28T11:44:25.378Z,41.35
2018-11-28T11:45:25.368Z,40.92
2018-11-28T11:46:25.368Z,39.78
2018-11-28T11:47:25.343Z,40.30
2018-11-28T11:48:25.331Z,40.09
2018-11-28T11:49:25.318Z,40.00
2018-11-28T11:50:25.308Z,40.52
2018-11-28T11:51:25.308Z,41.47
2018-11-28T11:52:25.287Z,42.00
2018-11-28T11:53:25.274Z,42.11
2018-11-28T11:54:25.264Z,41.70
2018-11-28T11:55:25.349Z,42.36
2018-11-28T11:56:25.255Z,42.88
2018-11-28T11:57:25.230Z,43.73
2018-11-28T11:58:25.220Z,43.52
2018-11-28T11:59:25.208Z,43.29
2018-11-28T12:00:25.195Z,43.37
2018-11-28T12:01:25.197Z,42.73
2018-11-28T12:02:25.174Z,42.24
2018-11-28T12:03:25.162Z,43.39
2018-11-28T12:04:25.153Z,43.80
2018-11-28T12:05:25.141Z,43.70
2018-11-28T12:06:25.171Z,43.91
2018-11-28T12:07:25.127Z,43.89
2018-11-28T12:08:25.105Z,43.79
2018-11-28T12:09:26.318Z,43.58
2018-11-28T12:10:25.083Z,43.68
2018-11-28T12:11:25.109Z,43.58
2018-11-28T12:12:25.076Z,43.27
2018-11-28T12:13:25.052Z,43.16
2018-11-28T12:14:25.040Z,44.43
2018-11-28T12:15:25.030Z,44.22
2018-11-28T12:16:25.022Z,43.80
2018-11-28T12:17:25.019Z,44.22
2018-11-28T12:18:24.996Z,44.12
2018-11-28T12:19:25.003Z,44.14
2018-11-28T12:20:24.975Z,44.22
2018-11-28T12:21:24.964Z,44.04
2018-11-28T12:22:24.965Z,44.06
2018-11-28T12:23:24.942Z,43.95
2018-11-28T12:24:24.930Z,45.20
2018-11-28T12:25:24.926Z,45.09
2018-11-28T12:26:24.918Z,44.57
2018-11-28T12:27:24.912Z,44.68
2018-11-28T12:28:24.889Z,44.68
2018-11-28T12:29:24.877Z,45.20
2018-11-28T12:30:24.932Z,45.20
2018-11-28T12:31:24.856Z,44.28
2018-11-28T12:32:24.865Z,44.26
2018-11-28T12:33:24.838Z,44.78
2018-11-28T12:34:24.825Z,44.80
2018-11-28T12:35:24.810Z,45.21
2018-11-28T12:36:24.799Z,44.70
2018-11-28T12:37:24.825Z,44.90
2018-11-28T12:38:24.779Z,45.01
2018-11-28T12:39:24.768Z,45.01
2018-11-28T12:40:31.814Z,45.42
2018-11-28T12:41:24.750Z,45.53
2018-11-28T12:42:24.734Z,45.63
2018-11-28T12:43:24.731Z,45.21
2018-11-28T12:44:24.714Z,45.09
2018-11-28T12:45:24.697Z,45.63
2018-11-28T12:46:24.686Z,45.61
2018-11-28T12:47:24.679Z,45.53
2018-11-28T12:48:24.679Z,45.73
2018-11-28T12:49:24.657Z,45.21
2018-11-28T12:50:24.642Z,45.94
2018-11-28T12:51:24.635Z,45.42
2018-11-28T12:52:24.621Z,45.45